Time;durP1;ratioP1;P1;durP2;ratioP2;P2;SDS_P1;SDS_P2;PMS_P1;PMS_P2;Temp;Humidity;BMP_temperature;BMP_pressure;BME280_temperature;BME280_humidity;BME280_pressure;Samples;Min_cycle;Max_cycle;Signal;HPM_P1;HPM_P2
2021/01/20 00:00:28;;;;;;;1.92;1.10;;;5.40;84.60;;;;;;5076873;28;20050;-74
2021/01/20 00:02:54;;;;;;;1.63;1.00;;;5.50;84.30;;;;;;5077743;28;20025;-75
2021/01/20 00:05:20;;;;;;;1.10;0.80;;;5.60;83.80;;;;;;5077858;28;20021;-76
2021/01/20 00:07:45;;;;;;;1.60;0.90;;;5.90;83.00;;;;;;5074895;28;20094;-75
2021/01/20 00:10:13;;;;;;;0.80;0.80;;;6.00;82.40;;;;;;5077002;28;20020;-74
2021/01/20 00:12:39;;;;;;;0.93;0.82;;;6.10;81.90;;;;;;5078440;28;20028;-74
2021/01/20 00:15:06;;;;;;;1.23;0.82;;;6.30;81.30;;;;;;5077150;28;20087;-75
2021/01/20 00:17:31;;;;;;;1.55;0.88;;;6.60;80.20;;;;;;5067121;28;20315;-74
2021/01/20 00:19:57;;;;;;;0.88;0.80;;;6.70;79.80;;;;;;5076144;28;20039;-74
2021/01/20 00:22:28;;;;;;;1.00;0.85;;;6.70;79.50;;;;;;5083046;28;20016;-73
2021/01/20 00:24:54;;;;;;;3.15;0.80;;;6.70;79.60;;;;;;5079867;28;20047;-73
2021/01/20 00:27:20;;;;;;;1.08;0.90;;;6.70;79.30;;;;;;5076467;28;20309;-73
2021/01/20 00:29:46;;;;;;;1.33;0.90;;;6.70;79.10;;;;;;5087378;28;20032;-74
2021/01/20 00:32:11;;;;;;;0.85;0.82;;;6.70;79.20;;;;;;5077280;28;20190;-73
2021/01/20 00:34:37;;;;;;;1.13;0.80;;;6.60;79.60;;;;;;5077514;28;20028;-73
2021/01/20 00:37:02;;;;;;;1.10;0.82;;;6.60;79.50;;;;;;5093063;28;20172;-73
2021/01/20 00:39:28;;;;;;;0.88;0.80;;;6.70;79.00;;;;;;5081415;28;20056;-74
2021/01/20 00:41:54;;;;;;;1.13;0.90;;;6.60;79.40;;;;;;5089071;28;20103;-73
2021/01/20 00:44:19;;;;;;;1.45;1.00;;;6.50;79.60;;;;;;5077362;28;20021;-74
2021/01/20 00:46:45;;;;;;;1.75;1.00;;;6.40;79.80;;;;;;5077809;28;20132;-74
2021/01/20 00:49:11;;;;;;;0.80;0.80;;;6.30;80.10;;;;;;5087238;28;20044;-74
2021/01/20 00:51:36;;;;;;;1.00;0.90;;;6.60;79.30;;;;;;5084006;28;20043;-75
2021/01/20 00:54:02;;;;;;;0.82;0.80;;;6.80;78.50;;;;;;5078360;28;20037;-75
2021/01/20 00:56:28;;;;;;;0.93;0.82;;;6.80;77.90;;;;;;5094597;28;20081;-75
2021/01/20 00:58:53;;;;;;;2.30;0.80;;;6.70;78.40;;;;;;5080571;28;20021;-74
2021/01/20 01:01:19;;;;;;;1.10;0.90;;;6.60;77.90;;;;;;5085757;28;20139;-74
2021/01/20 01:03:44;;;;;;;2.30;1.30;;;6.70;77.30;;;;;;5086136;28;20107;-74
2021/01/20 01:06:10;;;;;;;0.95;0.80;;;7.00;76.80;;;;;;5084283;28;20078;-74
2021/01/20 01:08:36;;;;;;;1.27;0.90;;;6.80;76.80;;;;;;5082486;28;20028;-74
2021/01/20 01:11:03;;;;;;;1.13;0.88;;;6.70;77.40;;;;;;5082503;28;20294;-73
2021/01/20 01:13:28;;;;;;;0.90;0.80;;;6.60;78.10;;;;;;5084089;28;20063;-74
2021/01/20 01:15:55;;;;;;;2.05;1.08;;;6.60;77.40;;;;;;5082034;28;20491;-74
2021/01/20 01:18:21;;;;;;;1.13;0.80;;;6.80;76.80;;;;;;5081230;28;20135;-74
2021/01/20 01:20:49;;;;;;;1.17;0.80;;;6.90;76.50;;;;;;5078740;28;20095;-75
2021/01/20 01:23:18;;;;;;;1.33;0.90;;;6.90;75.80;;;;;;5086165;28;20103;-73
2021/01/20 01:25:43;;;;;;;2.17;1.15;;;7.10;75.50;;;;;;5081037;28;20421;-74
2021/01/20 01:28:11;;;;;;;1.60;1.23;;;7.30;75.30;;;;;;5083348;28;20073;-73
2021/01/20 01:30:38;;;;;;;0.75;0.70;;;7.20;75.60;;;;;;5076991;28;20161;-73
2021/01/20 01:33:04;;;;;;;1.58;0.90;;;7.20;75.30;;;;;;5085437;28;20111;-73
2021/01/20 01:35:30;;;;;;;1.50;0.98;;;7.30;75.10;;;;;;5079211;28;20031;-73
2021/01/20 01:37:59;;;;;;;1.20;0.80;;;7.20;75.20;;;;;;5082056;28;20460;-73
2021/01/20 01:40:25;;;;;;;0.98;0.80;;;7.00;75.80;;;;;;5086560;28;20424;-73
2021/01/20 01:42:51;;;;;;;1.65;0.90;;;7.00;76.40;;;;;;5079544;28;20048;-75
2021/01/20 01:45:17;;;;;;;0.90;0.80;;;7.10;75.80;;;;;;5089064;28;20409;-75
2021/01/20 01:47:45;;;;;;;0.70;0.70;;;7.10;75.80;;;;;;5082082;28;20047;-74
2021/01/20 01:50:12;;;;;;;1.10;0.80;;;7.20;75.60;;;;;;5076790;28;20043;-73
2021/01/20 01:52:39;;;;;;;0.85;0.80;;;7.30;75.10;;;;;;5083397;28;20025;-73
2021/01/20 01:55:06;;;;;;;1.25;0.90;;;7.30;75.20;;;;;;5075315;28;20032;-74
2021/01/20 01:57:32;;;;;;;1.50;0.80;;;7.40;75.30;;;;;;5085706;28;20042;-74
2021/01/20 01:59:58;;;;;;;0.93;0.80;;;7.30;75.40;;;;;;5075863;28;20488;-73
2021/01/20 02:02:23;;;;;;;1.80;0.90;;;7.40;75.50;;;;;;5079499;28;20052;-73
2021/01/20 02:04:49;;;;;;;1.20;0.90;;;7.10;76.20;;;;;;5091436;28;20063;-74
2021/01/20 02:07:15;;;;;;;1.23;0.80;;;7.20;75.90;;;;;;5082762;28;20025;-73
2021/01/20 02:09:41;;;;;;;1.77;1.05;;;7.00;76.70;;;;;;5074279;28;20036;-73
2021/01/20 02:12:25;;;;;;;1.58;1.00;;;6.70;77.80;;;;;;5083800;28;20349;-73
2021/01/20 02:15:00;;;;;;;2.15;1.10;;;6.70;77.60;;;;;;5089475;28;20115;-74
2021/01/20 02:17:46;;;;;;;1.67;1.00;;;6.40;78.40;;;;;;5072117;28;20047;-72
2021/01/20 02:20:25;;;;;;;2.22;1.25;;;6.30;79.50;;;;;;5078244;28;20020;-74
2021/01/20 02:22:53;;;;;;;2.08;1.23;;;5.60;81.70;;;;;;5084672;28;20024;-75
2021/01/20 02:25:31;;;;;;;2.95;1.40;;;5.30;83.00;;;;;;5089326;28;20024;-74
2021/01/20 02:28:23;;;;;;;3.20;1.50;;;5.10;83.80;;;;;;5083150;28;20039;-76
2021/01/20 02:30:50;;;;;;;2.25;1.40;;;5.10;83.60;;;;;;5073983;28;20047;-74
2021/01/20 02:33:21;;;;;;;3.15;1.60;;;4.90;84.50;;;;;;5074420;28;20024;-74
2021/01/20 02:35:55;;;;;;;2.95;1.63;;;4.70;85.30;;;;;;5076252;28;20025;-75
2021/01/20 02:38:24;;;;;;;2.60;1.30;;;4.40;86.40;;;;;;5077663;28;20360;-74
2021/01/20 02:40:50;;;;;;;2.13;1.25;;;4.30;87.30;;;;;;5081825;28;20405;-74
2021/01/20 02:43:26;;;;;;;2.45;1.27;;;4.70;85.90;;;;;;5075819;28;20082;-73
2021/01/20 02:45:52;;;;;;;2.25;1.40;;;5.20;84.50;;;;;;5084110;28;20035;-74
2021/01/20 02:48:19;;;;;;;1.50;1.10;;;5.00;85.20;;;;;;5078813;28;20726;-74
2021/01/20 02:50:45;;;;;;;2.00;1.13;;;4.80;85.50;;;;;;5079821;28;20382;-76
2021/01/20 02:53:14;;;;;;;1.88;1.15;;;4.80;85.50;;;;;;5073636;28;20055;-75
2021/01/20 02:55:46;;;;;;;1.77;1.10;;;4.70;85.60;;;;;;5076398;28;20031;-74
2021/01/20 02:58:28;;;;;;;1.83;1.17;;;4.80;86.20;;;;;;5075283;28;20042;-74
2021/01/20 03:00:55;;;;;;;1.42;1.00;;;4.90;85.70;;;;;;5074067;28;20041;-75
2021/01/20 03:03:23;;;;;;;1.90;1.10;;;4.90;85.70;;;;;;5074886;28;20092;-74
2021/01/20 03:05:49;;;;;;;1.80;1.10;;;4.80;85.80;;;;;;5073658;28;20031;-74
2021/01/20 03:08:16;;;;;;;1.55;1.08;;;4.50;86.70;;;;;;5082061;28;20024;-75
2021/01/20 03:10:42;;;;;;;1.75;1.10;;;4.50;86.50;;;;;;5086875;28;20131;-74
2021/01/20 03:13:08;;;;;;;2.78;1.15;;;4.50;86.70;;;;;;5076303;28;20067;-74
2021/01/20 03:15:37;;;;;;;1.95;1.20;;;4.80;85.10;;;;;;5074639;28;20052;-74
2021/01/20 03:18:04;;;;;;;2.60;1.40;;;4.60;85.60;;;;;;5084574;28;20028;-73
2021/01/20 03:20:30;;;;;;;1.23;0.90;;;4.50;84.70;;;;;;5086551;28;20111;-74
2021/01/20 03:22:56;;;;;;;1.52;0.98;;;4.90;83.10;;;;;;5069493;28;20746;-73
2021/01/20 03:25:22;;;;;;;1.63;0.93;;;5.10;81.90;;;;;;5088478;28;20028;-74
2021/01/20 03:27:48;;;;;;;1.85;1.05;;;6.00;78.30;;;;;;5084377;28;20032;-73
2021/01/20 03:30:14;;;;;;;1.25;0.90;;;6.50;76.20;;;;;;5075382;28;20321;-74
2021/01/20 03:32:40;;;;;;;1.35;0.98;;;6.50;75.60;;;;;;5072434;28;20039;-74
2021/01/20 03:35:06;;;;;;;1.35;0.90;;;7.00;74.20;;;;;;5082316;28;20028;-75
2021/01/20 03:37:32;;;;;;;1.48;0.93;;;7.00;73.20;;;;;;5083466;28;20127;-74
2021/01/20 03:39:58;;;;;;;0.73;0.73;;;7.00;73.00;;;;;;5072011;28;20138;-75
2021/01/20 03:42:23;;;;;;;1.15;0.85;;;6.90;73.00;;;;;;5075145;28;20099;-75
2021/01/20 03:44:52;;;;;;;1.40;0.90;;;6.80;72.90;;;;;;5087003;28;20029;-74
2021/01/20 03:47:17;;;;;;;1.17;0.90;;;6.70;72.50;;;;;;5081162;28;20024;-74
2021/01/20 03:49:43;;;;;;;1.23;0.90;;;6.70;72.30;;;;;;5074766;28;20024;-74
2021/01/20 03:52:09;;;;;;;1.70;0.90;;;6.70;71.90;;;;;;5075037;28;20024;-75
2021/01/20 03:54:35;;;;;;;1.20;0.80;;;6.70;71.70;;;;;;5091231;28;20601;-76
2021/01/20 03:57:02;;;;;;;1.13;0.90;;;6.70;71.70;;;;;;5070842;28;20029;-74
2021/01/20 03:59:27;;;;;;;1.20;0.80;;;6.70;71.70;;;;;;5082289;28;20480;-74
2021/01/20 04:01:53;;;;;;;0.90;0.80;;;6.80;71.30;;;;;;5080071;28;20151;-74
2021/01/20 04:04:19;;;;;;;1.15;0.90;;;6.80;71.20;;;;;;5080224;28;20083;-73
2021/01/20 04:06:47;;;;;;;1.60;1.00;;;6.60;72.00;;;;;;5074341;28;20725;-75
2021/01/20 04:09:13;;;;;;;0.93;0.80;;;6.40;72.30;;;;;;5061310;28;20029;-75
2021/01/20 04:11:38;;;;;;;1.00;0.88;;;6.30;73.70;;;;;;5074777;28;20439;-75
2021/01/20 04:14:04;;;;;;;0.93;0.80;;;6.50;71.80;;;;;;5078555;28;20095;-75
2021/01/20 04:16:30;;;;;;;1.58;0.80;;;6.90;71.30;;;;;;5084505;28;20143;-75
2021/01/20 04:18:55;;;;;;;1.08;0.85;;;6.70;72.00;;;;;;5082476;28;20016;-75
2021/01/20 04:21:21;;;;;;;1.00;0.90;;;6.40;72.20;;;;;;5080932;28;20025;-75
2021/01/20 04:23:47;;;;;;;1.10;0.90;;;6.20;73.70;;;;;;5076692;28;20078;-75
2021/01/20 04:26:12;;;;;;;1.23;0.93;;;6.60;71.60;;;;;;5082059;28;20051;-73
2021/01/20 04:28:41;;;;;;;1.02;0.80;;;6.70;71.30;;;;;;5081501;28;20417;-74
2021/01/20 04:31:07;;;;;;;1.50;0.90;;;6.90;69.90;;;;;;5082670;28;20044;-73
2021/01/20 04:33:35;;;;;;;1.15;0.88;;;7.00;69.60;;;;;;5080647;28;20071;-73
2021/01/20 04:36:01;;;;;;;1.05;0.90;;;7.20;69.20;;;;;;5085859;28;20032;-74
2021/01/20 04:38:27;;;;;;;1.13;0.80;;;7.30;69.20;;;;;;5075757;28;20036;-75
2021/01/20 04:40:54;;;;;;;1.77;0.93;;;7.30;68.70;;;;;;5077776;28;20421;-76
2021/01/20 04:43:24;;;;;;;2.00;0.88;;;7.40;68.40;;;;;;5077028;28;20103;-75
2021/01/20 04:45:52;;;;;;;1.10;0.90;;;7.50;68.00;;;;;;5087122;28;20110;-74
2021/01/20 04:48:19;;;;;;;1.30;1.00;;;7.40;68.30;;;;;;5086777;28;20027;-74
2021/01/20 04:50:47;;;;;;;1.63;1.00;;;7.50;67.60;;;;;;5077109;28;20435;-75
2021/01/20 04:53:14;;;;;;;1.90;1.10;;;7.60;67.50;;;;;;5082297;28;20076;-74
2021/01/20 04:55:43;;;;;;;3.75;2.00;;;7.70;67.50;;;;;;5075780;28;20028;-75
2021/01/20 04:58:13;;;;;;;3.80;1.75;;;7.60;68.10;;;;;;5090352;28;20063;-74
2021/01/20 05:00:39;;;;;;;1.40;1.05;;;7.40;68.40;;;;;;5069894;28;20123;-74
2021/01/20 05:03:06;;;;;;;1.10;0.90;;;7.50;68.10;;;;;;5088885;28;20036;-75
2021/01/20 05:05:33;;;;;;;1.05;0.80;;;7.60;67.60;;;;;;5088709;28;20042;-73
2021/01/20 05:08:07;;;;;;;4.68;1.42;;;7.50;67.70;;;;;;5082712;28;20047;-74
2021/01/20 05:10:33;;;;;;;1.23;0.90;;;7.70;67.40;;;;;;5076064;28;20036;-74
2021/01/20 05:12:59;;;;;;;2.42;1.20;;;7.60;67.70;;;;;;5081644;28;20043;-76
2021/01/20 05:15:32;;;;;;;1.27;0.90;;;7.40;69.60;;;;;;5078225;28;20035;-74
2021/01/20 05:18:05;;;;;;;1.20;0.90;;;7.30;68.90;;;;;;5087645;28;20036;-74
2021/01/20 05:20:49;;;;;;;1.55;0.98;;;7.20;69.00;;;;;;5078286;28;20099;-75
2021/01/20 05:23:16;;;;;;;;;;;7.10;69.60;;;;;;5077828;28;20056;-74
2021/01/20 05:25:49;;;;;;;1.63;0.90;;;7.00;69.30;;;;;;5079486;28;19912;-74
2021/01/20 05:28:25;;;;;;;1.23;0.90;;;7.20;68.90;;;;;;5077438;28;20024;-75
2021/01/20 05:30:59;;;;;;;0.90;0.80;;;7.30;68.90;;;;;;5077415;28;20036;-74
2021/01/20 05:33:28;;;;;;;1.88;1.08;;;7.10;69.20;;;;;;5077165;28;20356;-73
2021/01/20 05:36:14;;;;;;;1.73;1.10;;;7.10;69.10;;;;;;5075711;28;20030;-74
2021/01/20 05:38:43;;;;;;;1.25;0.88;;;7.10;69.00;;;;;;5075009;28;20024;-75
2021/01/20 05:41:25;;;;;;;1.48;0.90;;;7.00;69.80;;;;;;5083796;28;20029;-75
2021/01/20 05:44:11;;;;;;;1.50;0.95;;;6.70;70.90;;;;;;5084185;28;20021;-75
2021/01/20 05:46:38;;;;;;;1.85;1.08;;;6.70;70.20;;;;;;5075940;28;20025;-75
2021/01/20 05:49:05;;;;;;;21.52;7.88;;;6.90;69.40;;;;;;5076329;28;20028;-75
2021/01/20 05:51:42;;;;;;;6.38;2.92;;;6.70;71.50;;;;;;5076429;28;20383;-75
2021/01/20 05:54:08;;;;;;;2.40;1.10;;;6.30;72.50;;;;;;5073687;28;20036;-74
2021/01/20 05:56:35;;;;;;;2.65;1.10;;;6.50;71.50;;;;;;5081841;28;20333;-73
2021/01/20 05:59:00;;;;;;;2.50;1.27;;;6.40;71.80;;;;;;5079422;28;20016;-73
2021/01/20 06:01:28;;;;;;;4.82;2.05;;;6.20;73.30;;;;;;5075191;28;20417;-74
2021/01/20 06:03:54;;;;;;;3.53;1.70;;;5.90;74.10;;;;;;5079799;28;20068;-74
2021/01/20 06:06:21;;;;;;;3.55;1.45;;;5.60;75.80;;;;;;5073118;28;20024;-75
2021/01/20 06:08:47;;;;;;;3.40;1.85;;;5.40;76.20;;;;;;5072845;28;20040;-75
2021/01/20 06:11:16;;;;;;;8.23;4.28;;;5.30;76.80;;;;;;5076335;28;20082;-74
2021/01/20 06:13:41;;;;;;;10.55;5.00;;;5.00;77.90;;;;;;5083112;28;20024;-74
2021/01/20 06:16:28;;;;;;;7.22;3.60;;;4.80;79.30;;;;;;5077234;28;20031;-74
2021/01/20 06:19:00;;;;;;;6.55;3.63;;;4.50;80.10;;;;;;5077893;28;20028;-74
2021/01/20 06:21:28;;;;;;;3.88;1.90;;;4.40;80.90;;;;;;5080257;28;20028;-75
2021/01/20 06:24:00;;;;;;;8.32;4.28;;;4.20;81.30;;;;;;5081501;28;20020;-75
2021/01/20 06:26:26;;;;;;;6.03;2.65;;;4.10;82.20;;;;;;5076873;28;20028;-74
2021/01/20 06:28:57;;;;;;;7.25;3.20;;;4.00;82.50;;;;;;5077954;28;20024;-75
2021/01/20 06:31:23;;;;;;;5.85;3.20;;;4.00;82.50;;;;;;5073262;28;20088;-75
2021/01/20 06:33:49;;;;;;;4.45;2.50;;;3.90;82.70;;;;;;5073206;28;20017;-73
2021/01/20 06:36:32;;;;;;;5.93;3.05;;;3.80;82.90;;;;;;5084852;28;20020;-74
2021/01/20 06:38:58;;;;;;;3.88;2.08;;;3.80;83.70;;;;;;5073888;28;20085;-74
2021/01/20 06:41:39;;;;;;;7.15;2.90;;;3.70;83.50;;;;;;5074267;28;20027;-74
2021/01/20 06:44:10;;;;;;;5.25;2.53;;;3.80;83.00;;;;;;5079914;28;20101;-74
2021/01/20 06:46:36;;;;;;;4.45;2.47;;;4.00;82.40;;;;;;5090593;28;20024;-73
2021/01/20 06:49:03;;;;;;;4.75;2.53;;;3.80;83.00;;;;;;5075756;28;20103;-75
2021/01/20 06:51:29;;;;;;;3.65;2.05;;;3.80;83.00;;;;;;5078205;28;20032;-74
2021/01/20 06:54:12;;;;;;;3.95;2.30;;;4.00;82.40;;;;;;5089417;28;20086;-74
2021/01/20 06:56:52;;;;;;;3.47;1.88;;;4.10;82.20;;;;;;5081714;28;20449;-76
2021/01/20 06:59:19;;;;;;;4.88;2.42;;;4.10;81.90;;;;;;5078173;28;20044;-75
2021/01/20 07:02:03;;;;;;;5.78;2.50;;;4.30;81.70;;;;;;5073801;28;20121;-74
2021/01/20 07:04:38;;;;;;;4.05;2.33;;;4.30;81.00;;;;;;5081800;28;20027;-75
2021/01/20 07:07:07;;;;;;;4.10;2.20;;;4.40;81.20;;;;;;5074791;28;20321;-73
2021/01/20 07:09:58;;;;;;;3.55;1.95;;;4.30;81.30;;;;;;5083099;28;20488;-74
2021/01/20 07:12:27;;;;;;;4.78;2.65;;;4.20;81.70;;;;;;5077041;28;20316;-75
2021/01/20 07:14:53;;;;;;;5.82;3.05;;;4.10;82.10;;;;;;5079269;28;20025;-74
2021/01/20 07:17:20;;;;;;;5.03;2.65;;;4.10;82.20;;;;;;5079892;28;20058;-75
2021/01/20 07:19:46;;;;;;;9.75;3.00;;;4.00;82.60;;;;;;5084493;28;20367;-75
2021/01/20 07:22:13;;;;;;;6.13;3.42;;;4.10;82.50;;;;;;5087491;28;20481;-74
2021/01/20 07:24:39;;;;;;;6.38;3.35;;;4.00;82.70;;;;;;5088355;28;20039;-75
2021/01/20 07:27:09;;;;;;;6.25;3.50;;;3.90;83.20;;;;;;5081726;28;20417;-74
2021/01/20 07:29:42;;;;;;;6.55;2.80;;;4.00;83.20;;;;;;5094446;28;20306;-74
2021/01/20 07:32:08;;;;;;;7.25;3.45;;;4.00;82.90;;;;;;5083776;28;20031;-76
2021/01/20 07:34:39;;;;;;;9.27;4.40;;;4.00;82.50;;;;;;5076591;28;20028;-77
2021/01/20 07:37:09;;;;;;;7.50;4.07;;;4.10;82.30;;;;;;5082458;28;20078;-76
2021/01/20 07:39:35;;;;;;;6.13;3.70;;;4.10;82.80;;;;;;5080310;28;20028;-75
2021/01/20 07:42:01;;;;;;;5.28;3.35;;;4.00;83.10;;;;;;5094584;28;20024;-77
2021/01/20 07:44:28;;;;;;;9.57;3.50;;;3.90;83.70;;;;;;5083219;28;20462;-74
2021/01/20 07:47:01;;;;;;;4.57;2.90;;;3.90;83.10;;;;;;5071460;28;20124;-76
2021/01/20 07:49:27;;;;;;;9.27;3.60;;;3.90;83.40;;;;;;5075796;28;20040;-75
2021/01/20 07:52:09;;;;;;;5.53;3.35;;;3.90;83.10;;;;;;5085809;28;20507;-76
2021/01/20 07:54:51;;;;;;;6.28;2.83;;;3.80;83.60;;;;;;5075760;28;20033;-76
2021/01/20 07:57:21;;;;;;;5.45;3.10;;;3.80;83.30;;;;;;5081580;28;20025;-76
2021/01/20 08:00:02;;;;;;;5.07;2.78;;;3.90;83.60;;;;;;5067511;28;20052;-76
2021/01/20 08:02:27;;;;;;;6.28;3.47;;;3.80;83.30;;;;;;5081937;28;20446;-77
2021/01/20 08:05:02;;;;;;;5.70;3.58;;;4.00;83.20;;;;;;5082469;28;20025;-77
2021/01/20 08:07:27;;;;;;;4.78;3.03;;;4.00;82.60;;;;;;5074818;28;20033;-76
2021/01/20 08:09:53;;;;;;;5.72;3.28;;;4.00;82.40;;;;;;5074466;28;20050;-76
2021/01/20 08:12:28;;;;;;;6.18;3.50;;;3.90;83.00;;;;;;5084441;28;20346;-77
2021/01/20 08:14:53;;;;;;;5.85;3.22;;;3.80;83.70;;;;;;5064626;28;20115;-76
2021/01/20 08:17:20;;;;;;;6.32;3.55;;;3.80;83.80;;;;;;5085973;28;20111;-76
2021/01/20 08:19:47;;;;;;;6.40;3.20;;;3.80;83.50;;;;;;5095534;28;20026;-76
2021/01/20 08:22:17;;;;;;;5.78;3.10;;;3.90;83.40;;;;;;5085313;28;20356;-76
2021/01/20 08:24:51;;;;;;;5.68;3.60;;;4.10;83.10;;;;;;5080587;28;20013;-76
2021/01/20 08:27:27;;;;;;;4.78;2.80;;;4.20;82.70;;;;;;5076447;28;20042;-77
2021/01/20 08:29:56;;;;;;;4.93;2.88;;;4.30;81.60;;;;;;5068612;28;20147;-78
2021/01/20 08:32:22;;;;;;;5.07;2.92;;;4.40;81.80;;;;;;5079988;28;20063;-78
2021/01/20 08:34:50;;;;;;;9.50;3.20;;;4.40;81.10;;;;;;5081689;28;20433;-77
2021/01/20 08:37:18;;;;;;;4.43;2.78;;;4.50;80.70;;;;;;5076105;28;20025;-76
2021/01/20 08:39:55;;;;;;;5.95;2.90;;;4.60;80.70;;;;;;5078324;28;20321;-76
2021/01/20 08:42:32;;;;;;;4.40;2.67;;;4.70;80.00;;;;;;5075974;28;20325;-77
2021/01/20 08:45:06;;;;;;;4.70;2.70;;;4.80;79.70;;;;;;5083383;28;20024;-77
2021/01/20 08:47:33;;;;;;;5.53;2.90;;;4.90;79.80;;;;;;5069894;28;20649;-78
2021/01/20 08:50:01;;;;;;;6.88;3.35;;;4.90;79.70;;;;;;5072972;28;20037;-78
2021/01/20 08:52:48;;;;;;;6.70;3.15;;;4.90;79.80;;;;;;5075057;28;20307;-76
2021/01/20 08:55:30;;;;;;;6.28;2.78;;;5.00;79.30;;;;;;5096195;28;20051;-75
2021/01/20 08:58:27;;;;;;;6.60;2.70;;;5.00;79.70;;;;;;5080306;28;20099;-76
2021/01/20 09:01:01;;;;;;;5.95;3.13;;;5.00;79.30;;;;;;5080307;28;20044;-78
2021/01/20 09:03:35;;;;;;;5.18;2.47;;;5.00;79.60;;;;;;5089864;28;20046;-76
2021/01/20 09:06:06;;;;;;;4.90;2.58;;;5.10;78.90;;;;;;5095411;28;20305;-76
2021/01/20 09:08:36;;;;;;;6.25;2.67;;;5.20;78.30;;;;;;5083751;28;20040;-76
2021/01/20 09:11:02;;;;;;;4.10;2.10;;;5.30;77.90;;;;;;5093365;28;20036;-76
2021/01/20 09:13:28;;;;;;;6.95;2.50;;;5.30;77.90;;;;;;5083234;28;20343;-77
2021/01/20 09:15:59;;;;;;;4.15;2.38;;;5.40;77.40;;;;;;5078243;28;20452;-76
2021/01/20 09:18:26;;;;;;;4.60;2.40;;;5.60;77.90;;;;;;5077596;28;20473;-77
2021/01/20 09:20:52;;;;;;;4.38;2.58;;;5.60;77.10;;;;;;5072068;28;20029;-76
2021/01/20 09:23:19;;;;;;;3.72;2.17;;;5.60;76.70;;;;;;5079334;28;20024;-77
2021/01/20 09:25:46;;;;;;;4.50;2.30;;;5.70;76.60;;;;;;5075892;28;20024;-78
2021/01/20 09:28:12;;;;;;;3.88;2.10;;;5.80;76.20;;;;;;5079130;28;20032;-78
2021/01/20 09:30:38;;;;;;;5.88;2.38;;;5.80;76.00;;;;;;5087947;28;20031;-77
2021/01/20 09:33:04;;;;;;;4.95;2.47;;;5.90;76.00;;;;;;5075118;28;20426;-77
2021/01/20 09:35:31;;;;;;;3.63;1.98;;;6.00;76.00;;;;;;5087220;28;20110;-76
2021/01/20 09:37:57;;;;;;;4.07;2.40;;;6.10;75.50;;;;;;5087802;28;20035;-77
2021/01/20 09:40:24;;;;;;;4.40;2.50;;;6.10;75.40;;;;;;5074742;28;20020;-76
2021/01/20 09:42:53;;;;;;;3.63;2.10;;;6.20;74.70;;;;;;5069763;28;20027;-76
2021/01/20 09:45:29;;;;;;;5.13;2.40;;;6.10;74.90;;;;;;5085701;28;20021;-77
2021/01/20 09:47:58;;;;;;;3.83;2.00;;;6.20;74.80;;;;;;5075769;28;20082;-78
2021/01/20 09:50:25;;;;;;;4.07;2.45;;;6.10;75.00;;;;;;5077139;28;20028;-77
2021/01/20 09:52:52;;;;;;;5.80;2.83;;;6.10;75.20;;;;;;5069378;28;20028;-77
2021/01/20 09:55:19;;;;;;;4.20;2.30;;;6.20;75.10;;;;;;5077033;28;20020;-77
2021/01/20 09:57:44;;;;;;;5.53;2.75;;;6.20;75.00;;;;;;5075852;28;20024;-78
2021/01/20 10:00:22;;;;;;;4.55;2.70;;;6.20;75.20;;;;;;5083154;28;20493;-76
2021/01/20 10:02:48;;;;;;;4.53;2.47;;;6.40;75.40;;;;;;5080142;28;20020;-77
2021/01/20 10:05:13;;;;;;;5.10;2.78;;;6.50;75.10;;;;;;5092562;28;20485;-76
2021/01/20 10:07:40;;;;;;;5.10;2.60;;;6.40;75.00;;;;;;5076941;28;20088;-77
2021/01/20 10:10:10;;;;;;;6.32;2.70;;;6.40;75.00;;;;;;5073220;28;20085;-78
2021/01/20 10:12:37;;;;;;;5.07;2.50;;;6.50;75.30;;;;;;5071786;28;20028;-77
2021/01/20 10:15:05;;;;;;;5.07;2.28;;;6.60;75.20;;;;;;5071549;28;20059;-77
2021/01/20 10:17:30;;;;;;;4.82;2.75;;;6.60;74.80;;;;;;5075517;28;20456;-77
2021/01/20 10:19:56;;;;;;;9.52;3.33;;;6.70;74.70;;;;;;5079591;28;20024;-77
2021/01/20 10:22:22;;;;;;;5.93;3.08;;;6.70;75.20;;;;;;5078943;28;20044;-77
2021/01/20 10:24:48;;;;;;;7.40;3.08;;;6.70;75.60;;;;;;5089564;28;20058;-78
2021/01/20 10:27:14;;;;;;;5.63;2.85;;;6.80;75.10;;;;;;5073828;28;20028;-77
2021/01/20 10:29:40;;;;;;;6.10;2.58;;;6.80;74.60;;;;;;5076795;28;20029;-78
2021/01/20 10:32:05;;;;;;;6.95;2.72;;;6.90;74.80;;;;;;5085764;28;20369;-78
2021/01/20 10:34:31;;;;;;;4.63;2.60;;;7.10;74.40;;;;;;5078266;28;20033;-78
2021/01/20 10:36:57;;;;;;;5.85;2.90;;;7.30;73.80;;;;;;5075121;28;20060;-78
2021/01/20 10:39:23;;;;;;;5.30;2.63;;;7.30;73.90;;;;;;5081388;28;20024;-80
2021/01/20 10:41:49;;;;;;;5.00;2.30;;;7.40;73.80;;;;;;5073015;28;20300;-80
2021/01/20 10:44:15;;;;;;;5.60;2.92;;;7.80;73.40;;;;;;5087901;28;20294;-80
2021/01/20 10:46:41;;;;;;;4.15;2.15;;;8.10;72.30;;;;;;5088818;28;20085;-80
2021/01/20 10:49:06;;;;;;;6.88;3.15;;;8.30;70.60;;;;;;5078402;28;20024;-80
2021/01/20 10:51:34;;;;;;;5.18;2.67;;;8.50;71.00;;;;;;5081880;28;20500;-78
2021/01/20 10:54:01;;;;;;;5.63;3.40;;;8.40;71.20;;;;;;5082624;28;20024;-79
2021/01/20 10:56:27;;;;;;;6.20;2.97;;;8.30;70.60;;;;;;5075366;28;20032;-80
2021/01/20 10:58:52;;;;;;;5.45;2.70;;;8.20;71.50;;;;;;5073924;28;20306;-79
2021/01/20 11:01:18;;;;;;;7.28;2.92;;;8.40;72.10;;;;;;5074754;28;20044;-78
2021/01/20 11:03:45;;;;;;;6.03;3.08;;;8.50;71.10;;;;;;5075221;28;20444;-79
2021/01/20 11:06:11;;;;;;;4.85;2.60;;;8.30;71.30;;;;;;5075751;28;20024;-79
2021/01/20 11:08:36;;;;;;;5.32;2.80;;;8.10;71.70;;;;;;5086629;28;20036;-79
2021/01/20 11:11:02;;;;;;;4.97;2.70;;;7.80;72.50;;;;;;5072243;28;20036;-78
2021/01/20 11:13:29;;;;;;;5.72;2.83;;;7.70;73.20;;;;;;5073044;28;20036;-80
2021/01/20 11:15:55;;;;;;;7.03;3.35;;;7.60;73.30;;;;;;5087836;28;20119;-80
2021/01/20 11:18:20;;;;;;;6.13;3.30;;;7.40;72.90;;;;;;5075486;28;20483;-79
2021/01/20 11:20:47;;;;;;;5.28;2.92;;;7.30;74.40;;;;;;5082595;28;20024;-78
2021/01/20 11:23:16;;;;;;;4.95;2.92;;;7.20;74.40;;;;;;5073560;28;20021;-78
2021/01/20 11:25:47;;;;;;;8.05;3.13;;;7.30;74.30;;;;;;5079331;28;20421;-77
2021/01/20 11:28:15;;;;;;;5.63;2.83;;;7.40;74.60;;;;;;5080912;28;20058;-79
2021/01/20 11:30:42;;;;;;;6.18;2.90;;;7.30;74.30;;;;;;5075802;28;20025;-76
2021/01/20 11:33:09;;;;;;;6.18;2.65;;;7.50;73.70;;;;;;5078912;28;20111;-77
2021/01/20 11:35:36;;;;;;;5.75;3.00;;;7.50;74.00;;;;;;5091578;28;20028;-75
2021/01/20 11:38:03;;;;;;;5.43;2.72;;;7.50;73.80;;;;;;5096917;28;20035;-77
2021/01/20 11:40:30;;;;;;;5.20;2.58;;;7.70;72.90;;;;;;5080751;28;20027;-76
2021/01/20 11:42:57;;;;;;;5.10;2.70;;;7.90;73.10;;;;;;5076525;28;20024;-77
2021/01/20 11:45:43;;;;;;;4.18;2.50;;;8.20;72.00;;;;;;5077302;28;20064;-76
2021/01/20 11:48:09;;;;;;;5.50;2.50;;;8.20;71.50;;;;;;5079050;28;20032;-76
2021/01/20 11:50:35;;;;;;;14.23;7.15;;;8.20;71.10;;;;;;5077422;28;20028;-76
2021/01/20 11:53:01;;;;;;;14.63;8.98;;;8.30;71.30;;;;;;5078212;28;20029;-76
2021/01/20 11:55:31;;;;;;;7.85;4.00;;;8.40;71.10;;;;;;5090165;28;20029;-77
2021/01/20 11:58:00;;;;;;;6.28;3.75;;;8.50;70.40;;;;;;5090577;28;20035;-77
2021/01/20 12:00:26;;;;;;;5.40;2.58;;;8.60;70.40;;;;;;5081774;28;20044;-76
2021/01/20 12:02:52;;;;;;;5.15;2.70;;;8.70;69.70;;;;;;5091084;28;20029;-76
2021/01/20 12:05:18;;;;;;;5.22;2.40;;;8.70;70.40;;;;;;5093748;28;20028;-78
2021/01/20 12:07:45;;;;;;;5.75;2.72;;;9.00;69.90;;;;;;5080326;28;20033;-79
2021/01/20 12:10:13;;;;;;;4.28;2.33;;;9.00;69.50;;;;;;5092770;28;20028;-79
2021/01/20 12:12:39;;;;;;;3.88;2.22;;;9.20;69.50;;;;;;5078582;28;20028;-78
2021/01/20 12:15:06;;;;;;;8.73;2.83;;;9.30;69.50;;;;;;5078221;28;20040;-79
2021/01/20 12:17:32;;;;;;;5.18;2.40;;;9.20;69.20;;;;;;5084361;28;20027;-79
2021/01/20 12:19:58;;;;;;;4.55;2.30;;;9.20;69.00;;;;;;5079893;28;20028;-77
2021/01/20 12:22:24;;;;;;;5.18;2.47;;;8.90;69.30;;;;;;5086139;28;20028;-78
2021/01/20 12:24:49;;;;;;;6.20;2.67;;;8.80;69.90;;;;;;5074453;28;20051;-78
2021/01/20 12:27:15;;;;;;;5.53;3.20;;;9.00;69.60;;;;;;5077108;28;20059;-79
2021/01/20 12:29:41;;;;;;;6.18;3.70;;;9.10;69.00;;;;;;5076556;28;20028;-78
2021/01/20 12:32:06;;;;;;;6.15;2.55;;;9.50;69.30;;;;;;5077894;28;20405;-78
2021/01/20 12:34:32;;;;;;;4.28;2.78;;;9.70;68.40;;;;;;5079566;28;20101;-79
2021/01/20 12:36:58;;;;;;;4.63;2.30;;;9.50;68.20;;;;;;5076081;28;20033;-77
2021/01/20 12:39:23;;;;;;;7.93;2.63;;;9.60;68.20;;;;;;5077211;28;20028;-77
2021/01/20 12:41:50;;;;;;;4.38;2.42;;;9.20;68.90;;;;;;5087969;28;20027;-78
2021/01/20 12:44:16;;;;;;;4.68;2.40;;;9.30;69.10;;;;;;5085045;28;20128;-77
2021/01/20 12:46:42;;;;;;;4.90;2.08;;;9.30;69.30;;;;;;5081166;28;20131;-78
2021/01/20 12:49:08;;;;;;;4.95;1.80;;;9.30;68.60;;;;;;5094728;28;20019;-77
2021/01/20 12:51:33;;;;;;;3.80;1.85;;;9.40;69.10;;;;;;5077540;28;20099;-78
2021/01/20 12:54:01;;;;;;;4.63;2.08;;;9.30;69.60;;;;;;5076461;28;20021;-77
2021/01/20 12:56:30;;;;;;;3.22;1.52;;;9.10;69.70;;;;;;5084469;28;20035;-76
2021/01/20 12:58:57;;;;;;;3.53;1.85;;;8.90;70.60;;;;;;5075990;28;20035;-77
2021/01/20 13:01:22;;;;;;;5.55;1.80;;;8.90;70.60;;;;;;5080174;28;20029;-77
2021/01/20 13:03:48;;;;;;;3.72;1.85;;;8.90;70.60;;;;;;5076096;28;20032;-78